sensor_id;sensor_type;location;lat;lon;timestamp;pressure;altitude;pressure_sealevel;temperature;humidity
60019;BME280;45870;42.528;26.740;2023-03-14T00:02:26;100183.28;;;5.66;43.50
60019;BME280;45870;42.528;26.740;2023-03-14T00:04:54;100187.00;;;5.86;43.24
60019;BME280;45870;42.528;26.740;2023-03-14T00:07:21;100181.13;;;5.97;42.11
60019;BME280;45870;42.528;26.740;2023-03-14T00:09:50;100182.13;;;5.75;42.27
60019;BME280;45870;42.528;26.740;2023-03-14T00:12:15;100175.91;;;5.89;42.51
60019;BME280;45870;42.528;26.740;2023-03-14T00:14:41;100175.91;;;5.53;43.08
60019;BME280;45870;42.528;26.740;2023-03-14T00:17:08;100178.66;;;5.81;43.20
60019;BME280;45870;42.528;26.740;2023-03-14T00:19:34;100142.56;;;5.56;43.09
60019;BME280;45870;42.528;26.740;2023-03-14T00:21:59;100081.13;;;5.06;41.84
60019;BME280;45870;42.528;26.740;2023-03-14T00:24:25;100155.66;;;5.66;43.17
60019;BME280;45870;42.528;26.740;2023-03-14T00:26:50;100143.63;;;5.76;42.71
60019;BME280;45870;42.528;26.740;2023-03-14T00:29:16;100144.69;;;5.61;43.21
60019;BME280;45870;42.528;26.740;2023-03-14T00:31:42;100129.13;;;5.71;42.74
60019;BME280;45870;42.528;26.740;2023-03-14T00:34:11;100088.97;;;5.49;43.11
60019;BME280;45870;42.528;26.740;2023-03-14T00:36:37;100122.44;;;5.39;43.47
60019;BME280;45870;42.528;26.740;2023-03-14T00:39:02;100040.25;;;4.97;43.79
60019;BME280;45870;42.528;26.740;2023-03-14T00:41:28;100104.19;;;5.70;42.73
60019;BME280;45870;42.528;26.740;2023-03-14T00:43:54;100110.19;;;5.30;44.31
60019;BME280;45870;42.528;26.740;2023-03-14T00:46:20;100101.59;;;5.56;42.19
60019;BME280;45870;42.528;26.740;2023-03-14T00:48:45;100100.88;;;4.90;44.13
60019;BME280;45870;42.528;26.740;2023-03-14T00:51:12;100104.38;;;5.05;43.61
60019;BME280;45870;42.528;26.740;2023-03-14T00:53:39;100111.44;;;5.48;41.92
60019;BME280;45870;42.528;26.740;2023-03-14T00:56:08;100113.00;;;5.43;42.78
60019;BME280;45870;42.528;26.740;2023-03-14T00:58:34;100118.81;;;5.46;41.49
60019;BME280;45870;42.528;26.740;2023-03-14T01:01:09;100116.06;;;4.53;43.94
60019;BME280;45870;42.528;26.740;2023-03-14T01:03:35;100125.31;;;5.01;43.60
60019;BME280;45870;42.528;26.740;2023-03-14T01:08:34;100115.94;;;5.48;42.21
60019;BME280;45870;42.528;26.740;2023-03-14T01:10:59;100116.03;;;5.19;42.01
60019;BME280;45870;42.528;26.740;2023-03-14T01:13:25;100124.84;;;5.34;41.40
60019;BME280;45870;42.528;26.740;2023-03-14T01:15:51;100069.69;;;4.97;42.26
60019;BME280;45870;42.528;26.740;2023-03-14T01:18:17;100135.31;;;5.14;41.88
60019;BME280;45870;42.528;26.740;2023-03-14T01:20:42;100119.34;;;4.99;42.95
60019;BME280;45870;42.528;26.740;2023-03-14T01:23:08;100119.53;;;5.19;42.25
60019;BME280;45870;42.528;26.740;2023-03-14T01:25:34;100120.56;;;4.68;42.07
60019;BME280;45870;42.528;26.740;2023-03-14T01:27:59;100051.53;;;3.98;42.95
60019;BME280;45870;42.528;26.740;2023-03-14T01:30:26;100118.53;;;4.40;42.13
60019;BME280;45870;42.528;26.740;2023-03-14T01:32:51;100109.13;;;4.00;43.94
60019;BME280;45870;42.528;26.740;2023-03-14T01:35:17;100113.94;;;4.49;42.76
60019;BME280;45870;42.528;26.740;2023-03-14T01:37:42;100113.44;;;4.16;42.81
60019;BME280;45870;42.528;26.740;2023-03-14T01:40:11;100124.94;;;4.02;41.32
60019;BME280;45870;42.528;26.740;2023-03-14T01:42:36;100118.16;;;4.14;42.37
60019;BME280;45870;42.528;26.740;2023-03-14T01:45:02;100117.59;;;4.19;42.01
60019;BME280;45870;42.528;26.740;2023-03-14T01:47:28;99952.00;;;2.85;43.38
60019;BME280;45870;42.528;26.740;2023-03-14T01:50:10;100109.09;;;4.15;42.22
60019;BME280;45870;42.528;26.740;2023-03-14T01:52:44;100111.25;;;4.34;41.54
60019;BME280;45870;42.528;26.740;2023-03-14T01:55:21;100112.19;;;4.41;42.21
60019;BME280;45870;42.528;26.740;2023-03-14T01:57:54;100105.34;;;4.24;41.86
60019;BME280;45870;42.528;26.740;2023-03-14T02:00:22;100106.19;;;3.73;42.52
60019;BME280;45870;42.528;26.740;2023-03-14T02:02:56;100104.25;;;4.33;42.69
60019;BME280;45870;42.528;26.740;2023-03-14T02:05:32;100102.41;;;4.34;43.11
60019;BME280;45870;42.528;26.740;2023-03-14T02:08:01;100104.34;;;4.40;43.71
60019;BME280;45870;42.528;26.740;2023-03-14T02:10:31;100095.78;;;4.44;43.77
60019;BME280;45870;42.528;26.740;2023-03-14T02:13:00;100088.22;;;4.63;44.59
60019;BME280;45870;42.528;26.740;2023-03-14T02:15:27;100092.56;;;4.49;44.90
60019;BME280;45870;42.528;26.740;2023-03-14T02:17:53;100081.59;;;4.94;43.12
60019;BME280;45870;42.528;26.740;2023-03-14T02:22:56;100098.97;;;4.84;42.95
60019;BME280;45870;42.528;26.740;2023-03-14T02:25:39;100101.94;;;4.74;43.84
60019;BME280;45870;42.528;26.740;2023-03-14T02:28:06;100099.81;;;3.96;45.61
60019;BME280;45870;42.528;26.740;2023-03-14T02:30:33;100099.72;;;4.78;44.43
60019;BME280;45870;42.528;26.740;2023-03-14T02:33:06;100097.31;;;5.19;43.71
60019;BME280;45870;42.528;26.740;2023-03-14T02:38:11;100098.44;;;5.10;43.35
60019;BME280;45870;42.528;26.740;2023-03-14T02:40:41;100099.03;;;5.26;43.31
60019;BME280;45870;42.528;26.740;2023-03-14T02:43:09;100102.22;;;5.36;43.51
60019;BME280;45870;42.528;26.740;2023-03-14T02:45:37;100093.31;;;5.50;43.55
60019;BME280;45870;42.528;26.740;2023-03-14T02:48:09;100089.19;;;5.48;42.85
60019;BME280;45870;42.528;26.740;2023-03-14T02:50:36;100087.97;;;5.50;42.92
60019;BME280;45870;42.528;26.740;2023-03-14T02:53:02;100070.13;;;5.36;42.70
60019;BME280;45870;42.528;26.740;2023-03-14T02:55:28;100101.91;;;5.25;43.50
60019;BME280;45870;42.528;26.740;2023-03-14T02:57:54;100089.72;;;4.86;44.14
60019;BME280;45870;42.528;26.740;2023-03-14T03:00:20;100089.03;;;5.14;43.27
60019;BME280;45870;42.528;26.740;2023-03-14T03:02:46;99873.03;;;4.16;42.66
60019;BME280;45870;42.528;26.740;2023-03-14T03:05:12;100090.06;;;5.55;42.77
60019;BME280;45870;42.528;26.740;2023-03-14T03:07:38;100092.50;;;5.14;43.55
60019;BME280;45870;42.528;26.740;2023-03-14T03:10:04;100092.44;;;5.08;43.37
60019;BME280;45870;42.528;26.740;2023-03-14T03:12:30;100079.41;;;5.40;43.33
60019;BME280;45870;42.528;26.740;2023-03-14T03:14:55;100071.88;;;5.50;42.45
60019;BME280;45870;42.528;26.740;2023-03-14T03:17:21;100073.75;;;5.29;41.97
60019;BME280;45870;42.528;26.740;2023-03-14T03:19:47;100075.19;;;5.31;42.15
60019;BME280;45870;42.528;26.740;2023-03-14T03:22:13;99989.66;;;4.95;42.60
60019;BME280;45870;42.528;26.740;2023-03-14T03:24:38;100060.56;;;5.27;43.67
60019;BME280;45870;42.528;26.740;2023-03-14T03:27:04;100066.38;;;4.95;44.02
60019;BME280;45870;42.528;26.740;2023-03-14T03:29:30;100054.84;;;4.94;44.05
60019;BME280;45870;42.528;26.740;2023-03-14T03:31:55;100038.59;;;4.75;45.34
60019;BME280;45870;42.528;26.740;2023-03-14T03:34:21;100045.97;;;5.30;44.17
60019;BME280;45870;42.528;26.740;2023-03-14T03:36:47;100051.09;;;5.52;42.74
60019;BME280;45870;42.528;26.740;2023-03-14T03:39:13;100053.25;;;5.64;42.44
60019;BME280;45870;42.528;26.740;2023-03-14T03:41:38;100056.53;;;5.59;42.25
60019;BME280;45870;42.528;26.740;2023-03-14T03:44:04;100032.06;;;4.98;42.63
60019;BME280;45870;42.528;26.740;2023-03-14T03:46:31;100063.91;;;5.15;43.02
60019;BME280;45870;42.528;26.740;2023-03-14T03:48:58;100061.97;;;5.23;42.76
60019;BME280;45870;42.528;26.740;2023-03-14T03:51:24;100056.84;;;5.07;44.06
60019;BME280;45870;42.528;26.740;2023-03-14T03:53:50;99990.84;;;4.36;43.95
60019;BME280;45870;42.528;26.740;2023-03-14T03:56:16;100057.72;;;5.14;44.14
60019;BME280;45870;42.528;26.740;2023-03-14T03:58:42;100060.03;;;5.38;42.35
60019;BME280;45870;42.528;26.740;2023-03-14T04:01:09;100067.25;;;5.17;42.14
60019;BME280;45870;42.528;26.740;2023-03-14T04:03:36;99982.06;;;4.27;42.50
60019;BME280;45870;42.528;26.740;2023-03-14T04:06:09;100055.50;;;5.18;41.45
60019;BME280;45870;42.528;26.740;2023-03-14T04:08:36;100049.81;;;4.85;41.38
60019;BME280;45870;42.528;26.740;2023-03-14T04:11:03;99805.13;;;3.24;42.19
60019;BME280;45870;42.528;26.740;2023-03-14T04:13:29;100056.72;;;4.79;42.27
60019;BME280;45870;42.528;26.740;2023-03-14T04:15:55;100002.97;;;3.50;44.03
60019;BME280;45870;42.528;26.740;2023-03-14T04:18:22;100057.41;;;4.67;41.02
60019;BME280;45870;42.528;26.740;2023-03-14T04:20:54;100065.66;;;4.36;42.32
60019;BME280;45870;42.528;26.740;2023-03-14T04:23:21;100062.88;;;4.44;41.48
60019;BME280;45870;42.528;26.740;2023-03-14T04:25:50;100062.41;;;4.40;40.96
60019;BME280;45870;42.528;26.740;2023-03-14T04:28:16;100054.59;;;4.39;41.30
60019;BME280;45870;42.528;26.740;2023-03-14T04:30:42;100044.38;;;4.28;41.29
60019;BME280;45870;42.528;26.740;2023-03-14T04:33:07;100035.75;;;4.47;41.17
60019;BME280;45870;42.528;26.740;2023-03-14T04:35:34;100053.53;;;4.54;41.89
60019;BME280;45870;42.528;26.740;2023-03-14T04:38:00;100055.84;;;4.58;41.88
60019;BME280;45870;42.528;26.740;2023-03-14T04:40:26;100053.28;;;4.49;41.78
60019;BME280;45870;42.528;26.740;2023-03-14T04:42:52;100048.47;;;4.74;42.14
60019;BME280;45870;42.528;26.740;2023-03-14T04:45:17;100045.81;;;4.45;42.28
60019;BME280;45870;42.528;26.740;2023-03-14T04:47:43;100059.06;;;5.03;40.86
60019;BME280;45870;42.528;26.740;2023-03-14T04:50:09;100058.59;;;5.00;42.46
60019;BME280;45870;42.528;26.740;2023-03-14T04:52:35;100056.72;;;5.36;40.85
60019;BME280;45870;42.528;26.740;2023-03-14T04:55:01;100061.19;;;5.29;40.69
60019;BME280;45870;42.528;26.740;2023-03-14T04:57:27;100059.81;;;5.82;41.10
60019;BME280;45870;42.528;26.740;2023-03-14T04:59:52;100056.53;;;4.95;41.84
60019;BME280;45870;42.528;26.740;2023-03-14T05:02:18;100070.16;;;5.43;41.67
60019;BME280;45870;42.528;26.740;2023-03-14T05:04:44;100064.09;;;5.98;39.97
60019;BME280;45870;42.528;26.740;2023-03-14T05:07:09;100062.59;;;5.95;40.85
60019;BME280;45870;42.528;26.740;2023-03-14T05:09:35;100071.84;;;6.21;40.21
60019;BME280;45870;42.528;26.740;2023-03-14T05:12:01;100070.06;;;6.34;40.64
60019;BME280;45870;42.528;26.740;2023-03-14T05:14:26;100066.03;;;6.99;40.81
60019;BME280;45870;42.528;26.740;2023-03-14T05:16:52;100065.19;;;6.92;41.12
60019;BME280;45870;42.528;26.740;2023-03-14T05:19:18;100063.47;;;7.38;40.16
60019;BME280;45870;42.528;26.740;2023-03-14T05:21:43;99937.84;;;7.08;39.14
60019;BME280;45870;42.528;26.740;2023-03-14T05:24:09;100065.34;;;7.90;38.88
60019;BME280;45870;42.528;26.740;2023-03-14T05:26:34;100064.06;;;7.47;39.70
60019;BME280;45870;42.528;26.740;2023-03-14T05:29:00;100070.03;;;7.42;39.86
60019;BME280;45870;42.528;26.740;2023-03-14T05:31:26;100070.75;;;8.74;37.76
60019;BME280;45870;42.528;26.740;2023-03-14T05:33:51;100077.56;;;9.28;38.02
60019;BME280;45870;42.528;26.740;2023-03-14T05:36:17;100005.56;;;10.09;36.64
60019;BME280;45870;42.528;26.740;2023-03-14T05:38:43;100053.69;;;11.03;35.52
60019;BME280;45870;42.528;26.740;2023-03-14T05:41:09;100065.34;;;10.49;37.01
60019;BME280;45870;42.528;26.740;2023-03-14T05:43:34;100070.44;;;11.53;34.25
60019;BME280;45870;42.528;26.740;2023-03-14T05:46:00;100067.22;;;11.86;33.68
60019;BME280;45870;42.528;26.740;2023-03-14T05:48:26;100069.56;;;11.29;34.58
60019;BME280;45870;42.528;26.740;2023-03-14T05:50:56;100068.63;;;11.77;34.92
60019;BME280;45870;42.528;26.740;2023-03-14T05:53:22;100064.19;;;11.94;34.00
60019;BME280;45870;42.528;26.740;2023-03-14T05:55:52;100066.91;;;12.06;34.01
60019;BME280;45870;42.528;26.740;2023-03-14T05:58:18;100066.00;;;10.81;37.03
60019;BME280;45870;42.528;26.740;2023-03-14T06:00:43;100041.44;;;10.52;37.65
60019;BME280;45870;42.528;26.740;2023-03-14T06:03:09;100061.50;;;11.94;35.83
60019;BME280;45870;42.528;26.740;2023-03-14T06:05:35;100058.38;;;12.72;34.41
60019;BME280;45870;42.528;26.740;2023-03-14T06:08:00;100056.63;;;13.62;33.00
60019;BME280;45870;42.528;26.740;2023-03-14T06:10:26;100051.28;;;13.84;32.60
60019;BME280;45870;42.528;26.740;2023-03-14T06:12:52;100050.19;;;13.51;32.70
60019;BME280;45870;42.528;26.740;2023-03-14T06:15:17;100055.31;;;11.64;37.33
60019;BME280;45870;42.528;26.740;2023-03-14T06:17:43;100032.06;;;12.44;35.34
60019;BME280;45870;42.528;26.740;2023-03-14T06:20:09;100050.34;;;13.45;34.46
60019;BME280;45870;42.528;26.740;2023-03-14T06:22:35;100050.22;;;13.23;34.41
60019;BME280;45870;42.528;26.740;2023-03-14T06:25:01;100050.22;;;12.20;36.40
60019;BME280;45870;42.528;26.740;2023-03-14T06:27:27;100053.31;;;13.43;34.66
60019;BME280;45870;42.528;26.740;2023-03-14T06:29:52;99990.63;;;11.09;37.23
60019;BME280;45870;42.528;26.740;2023-03-14T06:32:18;100045.34;;;10.57;38.21
60019;BME280;45870;42.528;26.740;2023-03-14T06:34:45;100045.97;;;8.59;43.43
60019;BME280;45870;42.528;26.740;2023-03-14T06:37:10;100043.84;;;11.09;39.63
60019;BME280;45870;42.528;26.740;2023-03-14T06:39:36;100049.66;;;13.21;34.38
60019;BME280;45870;42.528;26.740;2023-03-14T06:42:04;100046.59;;;13.06;34.90
60019;BME280;45870;42.528;26.740;2023-03-14T06:44:30;100041.84;;;14.03;33.23
60019;BME280;45870;42.528;26.740;2023-03-14T06:46:55;100047.84;;;16.58;29.20
60019;BME280;45870;42.528;26.740;2023-03-14T06:49:21;99989.13;;;17.07;28.04
60019;BME280;45870;42.528;26.740;2023-03-14T06:51:47;100054.50;;;16.35;28.00
60019;BME280;45870;42.528;26.740;2023-03-14T06:54:12;100060.38;;;15.85;29.16
60019;BME280;45870;42.528;26.740;2023-03-14T06:56:38;100043.53;;;16.72;27.93
60019;BME280;45870;42.528;26.740;2023-03-14T06:59:04;100053.13;;;15.64;30.59
60019;BME280;45870;42.528;26.740;2023-03-14T07:01:30;100051.00;;;16.03;29.75
60019;BME280;45870;42.528;26.740;2023-03-14T07:03:57;100050.38;;;14.88;31.48
60019;BME280;45870;42.528;26.740;2023-03-14T07:06:24;100033.81;;;14.68;32.02
60019;BME280;45870;42.528;26.740;2023-03-14T07:08:50;100042.72;;;14.64;33.06
60019;BME280;45870;42.528;26.740;2023-03-14T07:11:16;100040.84;;;13.59;34.89
60019;BME280;45870;42.528;26.740;2023-03-14T07:13:42;99876.66;;;15.14;31.72
60019;BME280;45870;42.528;26.740;2023-03-14T07:16:08;100038.72;;;13.78;34.41
60019;BME280;45870;42.528;26.740;2023-03-14T07:18:34;100023.03;;;15.48;30.48
60019;BME280;45870;42.528;26.740;2023-03-14T07:21:00;100028.06;;;15.93;30.66
60019;BME280;45870;42.528;26.740;2023-03-14T07:23:27;100035.78;;;14.73;32.60
60019;BME280;45870;42.528;26.740;2023-03-14T07:25:53;100027.91;;;15.20;32.98
60019;BME280;45870;42.528;26.740;2023-03-14T07:28:19;100024.91;;;13.96;34.87
60019;BME280;45870;42.528;26.740;2023-03-14T07:30:46;100021.47;;;15.31;32.27
60019;BME280;45870;42.528;26.740;2023-03-14T07:33:12;100023.34;;;18.11;27.91
60019;BME280;45870;42.528;26.740;2023-03-14T07:35:38;100020.22;;;15.97;30.69
60019;BME280;45870;42.528;26.740;2023-03-14T07:38:03;100017.34;;;18.04;28.36
60019;BME280;45870;42.528;26.740;2023-03-14T07:40:29;100022.03;;;16.75;30.72
60019;BME280;45870;42.528;26.740;2023-03-14T07:42:55;100015.38;;;18.39;27.09
60019;BME280;45870;42.528;26.740;2023-03-14T07:45:20;100021.78;;;20.39;24.89
60019;BME280;45870;42.528;26.740;2023-03-14T07:47:47;99855.81;;;21.03;22.78
60019;BME280;45870;42.528;26.740;2023-03-14T07:50:12;100016.25;;;17.94;27.40
60019;BME280;45870;42.528;26.740;2023-03-14T07:52:38;100012.56;;;18.70;28.44
60019;BME280;45870;42.528;26.740;2023-03-14T07:55:04;99992.66;;;18.49;27.61
60019;BME280;45870;42.528;26.740;2023-03-14T07:57:31;100008.13;;;19.77;26.02
60019;BME280;45870;42.528;26.740;2023-03-14T07:59:56;99996.13;;;21.39;23.49
60019;BME280;45870;42.528;26.740;2023-03-14T08:02:22;100009.19;;;21.79;23.29
60019;BME280;45870;42.528;26.740;2023-03-14T08:04:49;100010.53;;;19.39;25.49
60019;BME280;45870;42.528;26.740;2023-03-14T08:07:15;99999.31;;;18.13;27.67
60019;BME280;45870;42.528;26.740;2023-03-14T08:09:41;100004.19;;;17.30;30.46
60019;BME280;45870;42.528;26.740;2023-03-14T08:12:07;99995.19;;;17.19;29.82
60019;BME280;45870;42.528;26.740;2023-03-14T08:14:33;99984.34;;;17.80;28.24
60019;BME280;45870;42.528;26.740;2023-03-14T08:16:59;99951.88;;;18.68;28.14
60019;BME280;45870;42.528;26.740;2023-03-14T08:19:24;99971.97;;;22.19;24.38
60019;BME280;45870;42.528;26.740;2023-03-14T08:21:51;99974.09;;;22.36;22.65
60019;BME280;45870;42.528;26.740;2023-03-14T08:24:17;99969.28;;;18.87;27.99
60019;BME280;45870;42.528;26.740;2023-03-14T08:26:43;99967.34;;;21.69;24.05
60019;BME280;45870;42.528;26.740;2023-03-14T08:29:08;99969.75;;;20.58;25.28
60019;BME280;45870;42.528;26.740;2023-03-14T08:31:35;99924.09;;;18.51;26.99
60019;BME280;45870;42.528;26.740;2023-03-14T08:34:01;99963.56;;;17.43;29.67
60019;BME280;45870;42.528;26.740;2023-03-14T08:36:27;99955.03;;;15.48;32.23
60019;BME280;45870;42.528;26.740;2023-03-14T08:38:53;99949.59;;;18.06;28.15
60019;BME280;45870;42.528;26.740;2023-03-14T08:41:20;99956.41;;;16.30;31.97
60019;BME280;45870;42.528;26.740;2023-03-14T08:43:45;99946.94;;;17.55;31.09
60019;BME280;45870;42.528;26.740;2023-03-14T08:46:11;99950.34;;;18.36;28.75
60019;BME280;45870;42.528;26.740;2023-03-14T08:48:37;99943.81;;;15.13;34.14
60019;BME280;45870;42.528;26.740;2023-03-14T08:51:08;99943.38;;;16.42;31.79
60019;BME280;45870;42.528;26.740;2023-03-14T08:53:36;99836.41;;;16.72;30.28
60019;BME280;45870;42.528;26.740;2023-03-14T08:56:02;99933.41;;;16.63;31.30
60019;BME280;45870;42.528;26.740;2023-03-14T08:58:30;99925.53;;;18.18;29.67
60019;BME280;45870;42.528;26.740;2023-03-14T09:00:56;99933.13;;;16.64;32.64
60019;BME280;45870;42.528;26.740;2023-03-14T09:03:22;99927.47;;;15.40;34.21
60019;BME280;45870;42.528;26.740;2023-03-14T09:05:49;99924.00;;;15.44;34.09
60019;BME280;45870;42.528;26.740;2023-03-14T09:08:15;99920.13;;;17.98;29.01
60019;BME280;45870;42.528;26.740;2023-03-14T09:10:41;99920.59;;;14.74;35.77
60019;BME280;45870;42.528;26.740;2023-03-14T09:13:07;99922.34;;;17.25;30.33
60019;BME280;45870;42.528;26.740;2023-03-14T09:15:32;99909.06;;;14.62;35.47
60019;BME280;45870;42.528;26.740;2023-03-14T09:17:58;99916.91;;;14.85;34.39
60019;BME280;45870;42.528;26.740;2023-03-14T09:20:24;99899.16;;;17.02;32.29
60019;BME280;45870;42.528;26.740;2023-03-14T09:22:49;99900.78;;;17.28;31.08
60019;BME280;45870;42.528;26.740;2023-03-14T09:25:16;99892.31;;;17.75;30.44
60019;BME280;45870;42.528;26.740;2023-03-14T09:27:41;99895.03;;;16.79;31.73
60019;BME280;45870;42.528;26.740;2023-03-14T09:30:08;99896.34;;;16.72;31.94
60019;BME280;45870;42.528;26.740;2023-03-14T09:32:34;99885.66;;;15.14;34.01
60019;BME280;45870;42.528;26.740;2023-03-14T09:34:59;99884.19;;;14.75;34.61
60019;BME280;45870;42.528;26.740;2023-03-14T09:37:25;99880.59;;;16.94;31.79
60019;BME280;45870;42.528;26.740;2023-03-14T09:39:51;99845.13;;;17.60;30.48
60019;BME280;45870;42.528;26.740;2023-03-14T09:42:19;99878.44;;;16.19;32.74
60019;BME280;45870;42.528;26.740;2023-03-14T09:45:02;99871.03;;;17.67;30.89
60019;BME280;45870;42.528;26.740;2023-03-14T09:47:32;99859.91;;;18.33;29.04
60019;BME280;45870;42.528;26.740;2023-03-14T09:50:00;99676.94;;;16.44;29.25
60019;BME280;45870;42.528;26.740;2023-03-14T09:52:29;99857.19;;;19.16;27.11
60019;BME280;45870;42.528;26.740;2023-03-14T09:55:17;99861.16;;;20.15;26.39
60019;BME280;45870;42.528;26.740;2023-03-14T09:57:45;99848.13;;;18.86;28.22
60019;BME280;45870;42.528;26.740;2023-03-14T10:00:16;99842.97;;;16.71;30.39
60019;BME280;45870;42.528;26.740;2023-03-14T10:02:47;99840.13;;;16.50;32.21
60019;BME280;45870;42.528;26.740;2023-03-14T10:05:18;99830.94;;;17.42;30.03
60019;BME280;45870;42.528;26.740;2023-03-14T10:07:44;99834.13;;;15.76;31.95
60019;BME280;45870;42.528;26.740;2023-03-14T10:10:13;99781.38;;;15.82;31.48
60019;BME280;45870;42.528;26.740;2023-03-14T10:12:45;99820.28;;;19.71;27.08
60019;BME280;45870;42.528;26.740;2023-03-14T10:15:15;99806.56;;;17.81;29.83
60019;BME280;45870;42.528;26.740;2023-03-14T10:17:49;99806.56;;;19.47;27.91
60019;BME280;45870;42.528;26.740;2023-03-14T10:20:28;99803.34;;;19.40;27.07
60019;BME280;45870;42.528;26.740;2023-03-14T10:23:00;99807.47;;;17.52;29.47
60019;BME280;45870;42.528;26.740;2023-03-14T10:25:31;99797.13;;;20.67;24.90
60019;BME280;45870;42.528;26.740;2023-03-14T10:27:57;99794.03;;;19.70;26.77
60019;BME280;45870;42.528;26.740;2023-03-14T10:35:44;99774.34;;;19.10;27.89
60019;BME280;45870;42.528;26.740;2023-03-14T10:38:17;99768.69;;;17.60;29.75
60019;BME280;45870;42.528;26.740;2023-03-14T10:40:47;99774.28;;;20.15;25.93
60019;BME280;45870;42.528;26.740;2023-03-14T10:43:35;99762.81;;;20.51;24.65
60019;BME280;45870;42.528;26.740;2023-03-14T10:46:15;99757.38;;;19.84;26.16
60019;BME280;45870;42.528;26.740;2023-03-14T10:48:42;99743.69;;;18.40;28.76
60019;BME280;45870;42.528;26.740;2023-03-14T10:51:24;99744.38;;;17.68;29.53
60019;BME280;45870;42.528;26.740;2023-03-14T10:53:56;99736.06;;;17.09;29.37
60019;BME280;45870;42.528;26.740;2023-03-14T10:56:25;99724.09;;;16.80;30.18
60019;BME280;45870;42.528;26.740;2023-03-14T10:58:57;99717.78;;;19.77;26.59
60019;BME280;45870;42.528;26.740;2023-03-14T11:01:43;99713.44;;;18.32;28.42
60019;BME280;45870;42.528;26.740;2023-03-14T11:06:59;99707.66;;;20.52;24.77
60019;BME280;45870;42.528;26.740;2023-03-14T11:09:45;99707.88;;;19.33;27.64
60019;BME280;45870;42.528;26.740;2023-03-14T11:12:29;99693.53;;;20.26;25.74
60019;BME280;45870;42.528;26.740;2023-03-14T11:15:15;99688.38;;;20.89;25.05
60019;BME280;45870;42.528;26.740;2023-03-14T11:17:59;99691.81;;;19.03;26.24
60019;BME280;45870;42.528;26.740;2023-03-14T11:20:51;99681.59;;;18.85;26.07
60019;BME280;45870;42.528;26.740;2023-03-14T11:26:22;99661.94;;;19.30;26.15
60019;BME280;45870;42.528;26.740;2023-03-14T11:28:57;99665.09;;;18.66;25.90
60019;BME280;45870;42.528;26.740;2023-03-14T11:31:26;99635.44;;;20.24;24.62
60019;BME280;45870;42.528;26.740;2023-03-14T11:34:01;99633.84;;;21.29;23.53
60019;BME280;45870;42.528;26.740;2023-03-14T11:39:19;99629.09;;;20.10;24.52
60019;BME280;45870;42.528;26.740;2023-03-14T11:41:51;99618.16;;;18.20;27.98
60019;BME280;45870;42.528;26.740;2023-03-14T11:44:34;99611.94;;;19.67;24.31
60019;BME280;45870;42.528;26.740;2023-03-14T11:54:56;99582.75;;;17.17;26.04
60019;BME280;45870;42.528;26.740;2023-03-14T11:57:24;99579.81;;;18.64;25.87
60019;BME280;45870;42.528;26.740;2023-03-14T12:10:38;99554.53;;;21.99;21.41
60019;BME280;45870;42.528;26.740;2023-03-14T12:13:07;99548.56;;;18.94;24.52
60019;BME280;45870;42.528;26.740;2023-03-14T12:15:39;99539.00;;;20.82;23.42
60019;BME280;45870;42.528;26.740;2023-03-14T12:18:38;99534.09;;;19.73;23.59
60019;BME280;45870;42.528;26.740;2023-03-14T12:21:07;99522.72;;;21.98;21.03
60019;BME280;45870;42.528;26.740;2023-03-14T12:23:52;99522.06;;;22.54;20.07
60019;BME280;45870;42.528;26.740;2023-03-14T12:29:15;99509.00;;;21.62;20.09
60019;BME280;45870;42.528;26.740;2023-03-14T12:44:48;99463.97;;;23.21;18.72
60019;BME280;45870;42.528;26.740;2023-03-14T12:49:48;99464.25;;;21.26;20.40
60019;BME280;45870;42.528;26.740;2023-03-14T12:52:33;99465.22;;;20.94;20.94
60019;BME280;45870;42.528;26.740;2023-03-14T12:55:28;99461.53;;;23.36;18.55
60019;BME280;45870;42.528;26.740;2023-03-14T12:58:08;99456.16;;;22.88;18.58
60019;BME280;45870;42.528;26.740;2023-03-14T13:00:41;99459.09;;;22.53;18.85
60019;BME280;45870;42.528;26.740;2023-03-14T13:03:20;99449.16;;;22.74;18.79
60019;BME280;45870;42.528;26.740;2023-03-14T13:05:59;99422.63;;;22.78;18.42
60019;BME280;45870;42.528;26.740;2023-03-14T13:08:45;99398.28;;;22.63;18.24
60019;BME280;45870;42.528;26.740;2023-03-14T13:11:15;99450.22;;;23.55;18.25
60019;BME280;45870;42.528;26.740;2023-03-14T13:13:55;99416.03;;;23.39;17.43
60019;BME280;45870;42.528;26.740;2023-03-14T13:16:22;99442.94;;;24.31;17.66
60019;BME280;45870;42.528;26.740;2023-03-14T13:18:50;99426.59;;;25.14;17.03
60019;BME280;45870;42.528;26.740;2023-03-14T13:21:19;99426.88;;;24.33;16.71
60019;BME280;45870;42.528;26.740;2023-03-14T13:24:03;99418.41;;;24.68;16.94
60019;BME280;45870;42.528;26.740;2023-03-14T13:26:39;99423.47;;;24.36;16.98
60019;BME280;45870;42.528;26.740;2023-03-14T13:29:24;99413.22;;;25.91;15.53
60019;BME280;45870;42.528;26.740;2023-03-14T13:31:55;99415.13;;;28.19;13.61
60019;BME280;45870;42.528;26.740;2023-03-14T13:34:29;99385.06;;;30.25;11.43
60019;BME280;45870;42.528;26.740;2023-03-14T13:36:56;99398.34;;;30.35;11.86
60019;BME280;45870;42.528;26.740;2023-03-14T13:39:23;99391.75;;;27.76;12.90
60019;BME280;45870;42.528;26.740;2023-03-14T13:41:58;99388.19;;;27.20;13.00
60019;BME280;45870;42.528;26.740;2023-03-14T13:44:33;99374.34;;;27.92;12.82
60019;BME280;45870;42.528;26.740;2023-03-14T13:47:01;99378.75;;;28.71;12.08
60019;BME280;45870;42.528;26.740;2023-03-14T13:49:29;99367.53;;;29.21;11.98
60019;BME280;45870;42.528;26.740;2023-03-14T13:51:58;99362.97;;;31.18;10.26
60019;BME280;45870;42.528;26.740;2023-03-14T13:54:26;99370.97;;;30.63;10.65